createdAt,value
2023-04-21T00:00:41.863Z,101193.22
2023-04-21T00:03:11.961Z,101196.53
2023-04-21T00:05:45.296Z,101187.88
2023-04-21T00:08:15.197Z,101189.50
2023-04-21T00:10:45.122Z,101190.34
2023-04-21T00:13:15.147Z,101199.09
2023-04-21T00:15:45.108Z,101192.06
2023-04-21T00:18:14.991Z,101192.56
2023-04-21T00:20:48.473Z,101190.34
2023-04-21T00:23:18.403Z,101186.50
2023-04-21T00:25:48.218Z,101182.69
2023-04-21T00:28:18.133Z,101177.44
2023-04-21T00:30:47.949Z,101176.03
2023-04-21T00:33:17.779Z,101163.53
2023-04-21T00:35:50.550Z,101172.63
2023-04-21T00:38:20.378Z,101179.97
2023-04-21T00:40:50.267Z,101158.75
2023-04-21T00:43:20.082Z,101152.50
2023-04-21T00:45:49.923Z,101151.72
2023-04-21T00:48:19.993Z,101147.88
2023-04-21T00:50:52.512Z,101148.47
2023-04-21T00:53:23.727Z,101144.47
2023-04-21T00:55:54.035Z,101141.44
2023-04-21T00:58:23.914Z,101142.25
2023-04-21T01:00:53.872Z,101145.28
2023-04-21T01:03:23.897Z,101145.91
2023-04-21T01:05:56.452Z,101148.72
2023-04-21T01:08:26.352Z,101149.53
2023-04-21T01:10:56.181Z,101153.53
2023-04-21T01:13:25.995Z,101148.09
2023-04-21T01:15:55.855Z,101138.03
2023-04-21T01:18:25.695Z,101135.63
2023-04-21T01:20:58.589Z,101132.22
2023-04-21T01:23:31.096Z,101136.06
2023-04-21T01:26:01.362Z,101137.66
2023-04-21T01:28:31.419Z,101131.94
2023-04-21T01:31:01.392Z,101125.41
2023-04-21T01:33:31.556Z,101121.56
2023-04-21T01:36:02.039Z,101134.34
2023-04-21T01:38:34.479Z,101121.38
2023-04-21T01:41:04.380Z,101132.22
2023-04-21T01:43:34.412Z,101135.25
2023-04-21T01:46:04.428Z,101132.84
2023-04-21T01:48:34.618Z,101134.16
2023-04-21T01:51:04.500Z,101130.31
2023-04-21T01:53:37.067Z,101131.06
2023-04-21T01:56:07.454Z,101121.31
2023-04-21T01:58:37.407Z,101113.16
2023-04-21T02:01:07.375Z,101104.84
2023-04-21T02:03:37.841Z,101107.84
2023-04-21T02:06:08.494Z,101106.25
2023-04-21T02:08:40.975Z,101116.00
2023-04-21T02:11:10.959Z,101121.41
2023-04-21T02:13:40.886Z,101119.22
2023-04-21T02:16:14.015Z,101120.19
2023-04-21T02:18:44.834Z,101115.06
2023-04-21T02:21:14.730Z,101114.16
2023-04-21T02:23:47.851Z,101121.38
2023-04-21T02:26:18.075Z,101117.75
2023-04-21T02:28:48.093Z,101117.13
2023-04-21T02:31:19.005Z,101118.13
2023-04-21T02:33:49.335Z,101117.47
2023-04-21T02:36:19.195Z,101109.22
2023-04-21T02:38:52.246Z,101108.72
2023-04-21T02:41:23.528Z,101104.41
2023-04-21T02:43:53.548Z,101110.03
2023-04-21T02:46:26.994Z,101099.34
2023-04-21T02:48:56.939Z,101095.53
2023-04-21T02:51:27.090Z,101100.16
2023-04-21T02:53:59.846Z,101100.47
2023-04-21T02:56:29.814Z,101094.72
2023-04-21T02:58:59.794Z,101096.00
2023-04-21T03:01:29.682Z,101101.44
2023-04-21T03:03:59.902Z,101105.69
2023-04-21T03:06:29.909Z,101095.75
2023-04-21T03:09:02.616Z,101093.03
2023-04-21T03:11:32.466Z,101095.59
2023-04-21T03:14:02.493Z,101093.50
2023-04-21T03:16:32.746Z,101090.59
2023-04-21T03:19:02.737Z,101100.06
2023-04-21T03:21:34.475Z,101105.31
2023-04-21T03:24:07.631Z,101104.31
2023-04-21T03:26:38.198Z,101100.31
2023-04-21T03:29:08.069Z,101104.16
2023-04-21T03:31:37.994Z,101104.16
2023-04-21T03:34:08.113Z,101097.72
2023-04-21T03:36:38.154Z,101096.13
2023-04-21T03:39:19.799Z,101097.22
2023-04-21T03:41:50.748Z,101109.78
2023-04-21T03:44:22.059Z,101103.69
2023-04-21T03:46:52.024Z,101104.00
2023-04-21T03:49:22.000Z,101105.91
2023-04-21T03:51:52.012Z,101115.97
2023-04-21T03:54:24.564Z,101101.78
2023-04-21T03:56:54.524Z,101102.75
2023-04-21T03:59:24.539Z,101104.56
2023-04-21T04:01:54.402Z,101090.69
2023-04-21T04:04:24.649Z,101093.88
2023-04-21T04:06:54.790Z,101093.41
2023-04-21T04:09:27.886Z,101089.09
2023-04-21T04:11:57.933Z,101097.53
2023-04-21T04:14:28.025Z,101092.84
2023-04-21T04:17:01.859Z,101090.13
2023-04-21T04:19:34.790Z,101090.94
2023-04-21T04:22:05.199Z,101097.97
2023-04-21T04:24:38.973Z,101095.84
2023-04-21T04:27:09.753Z,101094.38
2023-04-21T04:29:40.084Z,101101.72
2023-04-21T04:32:11.375Z,101092.56
2023-04-21T04:34:41.341Z,101092.38
2023-04-21T04:37:13.408Z,101088.34
2023-04-21T04:39:45.991Z,101099.03
2023-04-21T04:42:15.930Z,101099.94
2023-04-21T04:44:45.989Z,101098.34
2023-04-21T04:50:00.115Z,101094.59
2023-04-21T04:52:30.272Z,101092.88
2023-04-21T04:55:00.514Z,101102.41
2023-04-21T04:57:30.505Z,101107.66
2023-04-21T05:00:00.474Z,101109.88
2023-04-21T05:02:31.035Z,101115.81
2023-04-21T05:05:03.774Z,101115.97
2023-04-21T05:07:33.738Z,101111.88
2023-04-21T05:10:04.790Z,101115.06
2023-04-21T05:12:35.276Z,101113.47
2023-04-21T05:15:05.646Z,101119.09
2023-04-21T05:17:36.583Z,101116.38
2023-04-21T05:20:12.898Z,101115.06
2023-04-21T05:22:43.167Z,101119.41
2023-04-21T05:25:17.478Z,101124.50
2023-04-21T05:27:48.560Z,101107.94
2023-04-21T05:30:18.593Z,101117.38
2023-04-21T05:32:48.542Z,101124.09
2023-04-21T05:35:22.216Z,101112.66
2023-04-21T05:37:52.180Z,101119.84
2023-04-21T05:40:22.282Z,101112.72
2023-04-21T05:42:52.300Z,101122.16
2023-04-21T05:45:22.240Z,101123.16
2023-04-21T05:47:52.507Z,101123.34
2023-04-21T05:50:26.640Z,101120.81
2023-04-21T05:52:56.714Z,101119.09
2023-04-21T05:55:26.699Z,101117.38
2023-04-21T05:57:56.751Z,101123.16
2023-04-21T06:00:26.759Z,101118.75
2023-04-21T06:02:56.947Z,101118.44
2023-04-21T06:05:30.400Z,101121.31
2023-04-21T06:08:00.672Z,101117.47
2023-04-21T06:10:31.137Z,101114.97
2023-04-21T06:13:01.369Z,101114.66
2023-04-21T06:15:31.361Z,101108.41
2023-04-21T06:18:01.661Z,101111.78
2023-04-21T06:20:34.381Z,101108.25
2023-04-21T06:23:04.269Z,101103.31
2023-04-21T06:25:34.212Z,101112.75
2023-04-21T06:28:04.141Z,101115.03
2023-04-21T06:30:34.053Z,101129.47
2023-04-21T06:33:04.737Z,101126.63
2023-04-21T06:35:37.329Z,101117.88
2023-04-21T06:38:12.142Z,101116.75
2023-04-21T06:40:42.012Z,101120.94
2023-04-21T06:43:11.986Z,101106.84
2023-04-21T06:45:41.904Z,101098.88
2023-04-21T06:48:12.045Z,101097.94
2023-04-21T06:50:45.194Z,101107.56
2023-04-21T06:53:15.493Z,101100.88
2023-04-21T06:55:45.463Z,101106.50
2023-04-21T06:58:15.936Z,101101.25
2023-04-21T07:00:45.890Z,101100.66
2023-04-21T07:03:18.934Z,101106.09
2023-04-21T07:05:51.527Z,101103.84
2023-04-21T07:08:21.530Z,101109.75
2023-04-21T07:10:51.484Z,101111.88
2023-04-21T07:13:21.431Z,101104.34
2023-04-21T07:15:51.335Z,101103.91
2023-04-21T07:18:21.563Z,101093.53
2023-04-21T07:20:54.409Z,101094.47
2023-04-21T07:23:24.439Z,101091.16
2023-04-21T07:25:54.548Z,101088.25
2023-04-21T07:28:24.580Z,101093.56
2023-04-21T07:30:54.527Z,101095.50
2023-04-21T07:33:24.539Z,101097.13
2023-04-21T07:35:57.199Z,101097.63
2023-04-21T07:38:27.363Z,101092.34
2023-04-21T07:40:57.258Z,101088.66
2023-04-21T07:43:27.265Z,101078.75
2023-04-21T07:45:57.260Z,101075.22
2023-04-21T07:48:27.526Z,101079.41
2023-04-21T07:51:01.894Z,101090.13
2023-04-21T07:53:31.873Z,101080.66
2023-04-21T07:56:01.998Z,101088.66
2023-04-21T07:58:31.838Z,101080.50
2023-04-21T08:01:01.703Z,101090.25
2023-04-21T08:03:31.901Z,101084.47
2023-04-21T08:06:04.968Z,101082.66
2023-04-21T08:08:35.102Z,101085.22
2023-04-21T08:11:05.133Z,101082.53
2023-04-21T08:13:36.202Z,101077.53
2023-04-21T08:16:06.241Z,101087.31
2023-04-21T08:18:36.241Z,101084.59
2023-04-21T08:21:09.011Z,101084.25
2023-04-21T08:23:38.999Z,101082.47
2023-04-21T08:26:09.579Z,101085.66
2023-04-21T08:28:39.585Z,101083.75
2023-04-21T08:31:09.649Z,101088.88
2023-04-21T08:33:50.104Z,101092.06
2023-04-21T08:36:32.175Z,101082.59
2023-04-21T08:39:04.311Z,101093.97
2023-04-21T08:41:34.258Z,101096.84
2023-04-21T08:44:04.237Z,101099.78
2023-04-21T08:46:35.385Z,101096.50
2023-04-21T08:49:08.600Z,101079.41
2023-04-21T08:51:41.351Z,101084.13
2023-04-21T08:54:11.852Z,101086.34
2023-04-21T08:56:42.739Z,101081.91
2023-04-21T08:59:12.800Z,101082.19
2023-04-21T09:02:17.768Z,101081.91
2023-04-21T09:04:50.668Z,101075.38
2023-04-21T09:07:42.111Z,101072.69
2023-04-21T09:10:12.513Z,101082.16
2023-04-21T09:12:42.805Z,101079.38
2023-04-21T09:15:14.178Z,101083.44
2023-04-21T09:17:44.454Z,101078.31
2023-04-21T09:20:18.193Z,101087.91
2023-04-21T09:22:52.464Z,101074.81
2023-04-21T09:25:23.408Z,101090.22
2023-04-21T09:27:53.240Z,101074.22
2023-04-21T09:30:23.463Z,101078.00
2023-04-21T09:32:53.484Z,101079.72
2023-04-21T09:35:23.712Z,101071.84
2023-04-21T09:37:56.317Z,101075.78
2023-04-21T09:40:26.281Z,101075.28
2023-04-21T09:42:56.325Z,101070.31
2023-04-21T09:45:39.685Z,101067.66
2023-04-21T09:48:13.066Z,101068.38
2023-04-21T09:53:21.608Z,101052.72
2023-04-21T09:55:56.745Z,101066.50
2023-04-21T09:58:30.609Z,101068.78
2023-04-21T10:01:00.883Z,101067.88
2023-04-21T10:03:31.946Z,101068.56
2023-04-21T10:06:03.058Z,101061.84
2023-04-21T10:08:36.704Z,101042.22
2023-04-21T10:11:07.747Z,101040.75
2023-04-21T10:13:40.055Z,101045.28
2023-04-21T10:16:11.323Z,101035.94
2023-04-21T10:18:42.074Z,101042.63
2023-04-21T10:21:16.328Z,101039.81
2023-04-21T10:23:50.680Z,101041.19
2023-04-21T10:26:22.418Z,101032.97
2023-04-21T10:28:56.761Z,101034.06
2023-04-21T10:31:31.992Z,101038.97
2023-04-21T10:34:23.120Z,101029.56
2023-04-21T10:37:12.741Z,101027.63
2023-04-21T10:39:56.070Z,101023.53
2023-04-21T10:42:31.954Z,101032.44
2023-04-21T10:45:13.644Z,101025.06
2023-04-21T10:47:50.165Z,101026.41
2023-04-21T10:50:26.051Z,101025.88
2023-04-21T10:52:59.490Z,101019.69
2023-04-21T10:55:33.384Z,101005.00
2023-04-21T10:58:05.889Z,101016.06
2023-04-21T11:00:38.053Z,101020.50
2023-04-21T11:03:09.872Z,101009.16
2023-04-21T11:05:41.642Z,100999.09
2023-04-21T11:08:16.783Z,101010.75
2023-04-21T11:10:59.816Z,101001.91
2023-04-21T11:13:35.086Z,100994.13
2023-04-21T11:16:08.601Z,100985.91
2023-04-21T11:18:43.080Z,100988.81
2023-04-21T11:21:18.094Z,100983.97
2023-04-21T11:23:56.043Z,100984.84
2023-04-21T11:26:39.675Z,100971.78
2023-04-21T11:29:11.873Z,100974.28
2023-04-21T11:31:44.222Z,100973.38
2023-04-21T11:34:15.633Z,100972.38
2023-04-21T11:36:47.442Z,100964.50
2023-04-21T11:39:21.772Z,100963.97
2023-04-21T11:41:55.302Z,100960.13
2023-04-21T11:44:36.113Z,100957.47
2023-04-21T11:47:16.284Z,100955.00
2023-04-21T11:49:50.767Z,100947.19
2023-04-21T11:52:28.225Z,100951.19
2023-04-21T11:55:00.519Z,100948.25
2023-04-21T11:57:34.460Z,100945.38
2023-04-21T12:00:06.786Z,100944.81
2023-04-21T12:02:37.389Z,100930.94
2023-04-21T12:05:09.599Z,100922.09
2023-04-21T12:07:42.221Z,100923.69
2023-04-21T12:10:14.553Z,100922.25
2023-04-21T12:12:47.432Z,100916.16
2023-04-21T12:15:23.351Z,100913.06
2023-04-21T12:17:56.757Z,100914.13
2023-04-21T12:20:31.981Z,100912.53
2023-04-21T12:23:02.125Z,100910.66
2023-04-21T12:25:32.052Z,100902.09
2023-04-21T12:28:04.532Z,100889.81
2023-04-21T12:30:37.466Z,100885.81
2023-04-21T12:33:08.755Z,100869.13
2023-04-21T12:35:39.269Z,100862.91
2023-04-21T12:38:09.287Z,100861.81
2023-04-21T12:40:39.118Z,100864.16
2023-04-21T12:43:11.653Z,100857.88
2023-04-21T12:45:41.689Z,100856.63
2023-04-21T12:48:11.727Z,100847.84
2023-04-21T12:50:43.417Z,100857.56
2023-04-21T12:53:13.600Z,100858.13
2023-04-21T12:55:56.914Z,100853.75
2023-04-21T12:58:33.889Z,100852.41
2023-04-21T13:01:04.213Z,100850.09
2023-04-21T13:03:36.278Z,100843.94
2023-04-21T13:06:07.696Z,100841.03
2023-04-21T13:08:37.765Z,100833.69
2023-04-21T13:11:08.030Z,100846.38
2023-04-21T13:13:40.656Z,100840.22
2023-04-21T13:16:10.759Z,100835.63
2023-04-21T13:18:41.397Z,100836.75
2023-04-21T13:21:11.400Z,100837.06
2023-04-21T13:23:41.346Z,100833.25
2023-04-21T13:26:11.730Z,100831.66
2023-04-21T13:28:44.377Z,100827.63
2023-04-21T13:31:17.564Z,100823.13
2023-04-21T13:33:47.541Z,100820.34
2023-04-21T13:36:17.574Z,100809.50
2023-04-21T13:38:48.294Z,100807.25
2023-04-21T13:41:18.273Z,100806.31
2023-04-21T13:43:50.847Z,100804.63
2023-04-21T13:46:20.880Z,100804.63
2023-04-21T13:48:51.832Z,100795.28
2023-04-21T13:51:22.306Z,100787.47
2023-04-21T13:53:52.239Z,100785.03
2023-04-21T13:56:22.159Z,100784.09
2023-04-21T13:58:55.385Z,100767.59
2023-04-21T14:01:25.361Z,100760.56
2023-04-21T14:03:56.996Z,100753.34
2023-04-21T14:06:28.519Z,100749.88
2023-04-21T14:08:58.628Z,100746.66
2023-04-21T14:11:28.669Z,100749.94
2023-04-21T14:14:09.620Z,100743.41
2023-04-21T14:16:41.726Z,100738.34
2023-04-21T14:19:11.773Z,100725.13
2023-04-21T14:21:43.035Z,100722.88
2023-04-21T14:24:13.096Z,100711.88
2023-04-21T14:26:43.025Z,100716.72
2023-04-21T14:29:16.630Z,100707.94
2023-04-21T14:31:46.572Z,100698.84
2023-04-21T14:34:16.495Z,100688.09
2023-04-21T14:36:50.221Z,100694.84
2023-04-21T14:39:20.226Z,100688.22
2023-04-21T14:41:50.110Z,100691.41
2023-04-21T14:44:22.642Z,100687.47
2023-04-21T14:47:08.499Z,100682.06
2023-04-21T14:49:40.741Z,100676.59
2023-04-21T14:52:10.794Z,100667.91
2023-04-21T14:54:40.714Z,100670.31
2023-04-21T14:57:20.721Z,100665.25
2023-04-21T14:59:55.326Z,100644.44
2023-04-21T15:02:26.016Z,100664.19
2023-04-21T15:04:56.230Z,100653.94
2023-04-21T15:07:26.439Z,100644.47
2023-04-21T15:09:56.749Z,100648.00
2023-04-21T15:12:26.939Z,100654.22
2023-04-21T15:14:59.460Z,100656.53
2023-04-21T15:17:29.524Z,100648.28
2023-04-21T15:19:59.666Z,100645.13
2023-04-21T15:22:29.752Z,100641.25
2023-04-21T15:25:00.250Z,100634.94
2023-04-21T15:27:32.492Z,100635.31
2023-04-21T15:30:05.008Z,100632.63
2023-04-21T15:32:34.975Z,100624.34
2023-04-21T15:35:04.852Z,100626.75
2023-04-21T15:37:37.825Z,100618.50
2023-04-21T15:40:09.359Z,100618.53
2023-04-21T15:42:39.333Z,100616.13
2023-04-21T15:45:13.252Z,100607.47
2023-04-21T15:47:43.153Z,100604.69
2023-04-21T15:50:16.536Z,100594.81
2023-04-21T15:52:46.511Z,100596.03
2023-04-21T15:55:16.593Z,100593.28
2023-04-21T15:57:46.440Z,100588.94
2023-04-21T16:00:20.249Z,100592.09
2023-04-21T16:02:51.283Z,100590.50
2023-04-21T16:05:23.805Z,100589.34
2023-04-21T16:07:55.328Z,100586.19
2023-04-21T16:10:25.457Z,100568.41
2023-04-21T16:12:55.371Z,100565.22
2023-04-21T16:15:28.021Z,100562.81
2023-04-21T16:17:58.314Z,100565.59
2023-04-21T16:20:31.478Z,100569.53
2023-04-21T16:23:01.834Z,100551.78
2023-04-21T16:25:31.949Z,100561.63
2023-04-21T16:28:02.471Z,100562.41
2023-04-21T16:30:35.380Z,100556.50
2023-04-21T16:33:05.467Z,100554.53
2023-04-21T16:35:35.654Z,100559.28
2023-04-21T16:38:08.384Z,100556.88
2023-04-21T16:40:38.348Z,100554.50
2023-04-21T16:43:08.251Z,100561.97
2023-04-21T16:45:44.058Z,100559.97
2023-04-21T16:48:14.063Z,100554.81
2023-04-21T16:50:45.802Z,100548.09
2023-04-21T16:53:16.162Z,100555.13
2023-04-21T16:55:46.164Z,100548.44
2023-04-21T16:58:16.168Z,100554.72
2023-04-21T17:00:48.781Z,100557.81
2023-04-21T17:03:19.187Z,100555.03
2023-04-21T17:05:49.290Z,100549.53
2023-04-21T17:08:19.415Z,100549.94
2023-04-21T17:10:49.331Z,100543.25
2023-04-21T17:13:19.292Z,100541.69
2023-04-21T17:15:52.074Z,100536.91
2023-04-21T17:18:22.020Z,100529.06
2023-04-21T17:20:51.905Z,100520.41
2023-04-21T17:23:21.894Z,100536.16
2023-04-21T17:25:51.953Z,100523.16
2023-04-21T17:28:23.332Z,100519.63
2023-04-21T17:31:07.049Z,100517.22
2023-04-21T17:33:44.102Z,100509.28
2023-04-21T17:36:14.333Z,100521.88
2023-04-21T17:38:44.833Z,100510.09
2023-04-21T17:41:14.729Z,100510.47
2023-04-21T17:43:44.602Z,100517.16
2023-04-21T17:46:17.396Z,100521.06
2023-04-21T17:48:47.315Z,100523.75
2023-04-21T17:51:19.509Z,100516.59
2023-04-21T17:53:49.674Z,100510.66
2023-04-21T17:56:19.689Z,100519.28
2023-04-21T17:58:52.271Z,100513.31
2023-04-21T18:01:24.795Z,100527.88
2023-04-21T18:03:58.487Z,100531.75
2023-04-21T18:06:30.576Z,100534.06
2023-04-21T18:09:00.817Z,100546.19
2023-04-21T18:11:31.681Z,100542.63
2023-04-21T18:14:04.311Z,100548.50
2023-04-21T18:16:37.058Z,100550.44
2023-04-21T18:19:07.667Z,100557.41
2023-04-21T18:21:38.062Z,100565.22
2023-04-21T18:24:08.300Z,100554.88
2023-04-21T18:26:38.900Z,100543.00
2023-04-21T18:29:08.909Z,100532.72
2023-04-21T18:31:41.629Z,100530.28
2023-04-21T18:34:12.134Z,100536.78
2023-04-21T18:36:43.162Z,100538.56
2023-04-21T18:39:13.357Z,100532.56
2023-04-21T18:41:48.358Z,100537.50
2023-04-21T18:44:19.146Z,100535.75
2023-04-21T18:46:51.764Z,100545.06
2023-04-21T18:49:21.798Z,100547.72
2023-04-21T18:51:51.784Z,100551.06
2023-04-21T18:54:21.814Z,100559.22
2023-04-21T18:56:51.824Z,100566.63
2023-04-21T18:59:22.506Z,100566.50
2023-04-21T19:01:55.362Z,100560.91
2023-04-21T19:04:25.419Z,100563.91
2023-04-21T19:06:55.559Z,100573.53
2023-04-21T19:09:27.392Z,100572.22
2023-04-21T19:11:57.751Z,100562.28
2023-04-21T19:14:29.009Z,100563.31
2023-04-21T19:17:04.015Z,100563.94
2023-04-21T19:19:33.998Z,100560.28
2023-04-21T19:22:04.498Z,100559.78
2023-04-21T19:24:34.610Z,100564.38
2023-04-21T19:27:06.378Z,100573.34
2023-04-21T19:29:36.736Z,100568.16
2023-04-21T19:32:10.185Z,100575.06
2023-04-21T19:34:40.258Z,100576.19
2023-04-21T19:37:10.986Z,100569.44
2023-04-21T19:39:40.904Z,100568.94
2023-04-21T19:42:11.236Z,100566.16
2023-04-21T19:44:41.539Z,100564.47
2023-04-21T19:47:14.174Z,100615.25
2023-04-21T19:49:44.146Z,100638.75
2023-04-21T19:52:16.499Z,100648.22
2023-04-21T19:54:49.363Z,100661.56
2023-04-21T19:57:19.305Z,100655.19
2023-04-21T19:59:49.345Z,100635.16
2023-04-21T20:02:22.428Z,100636.56
2023-04-21T20:04:53.809Z,100639.03
2023-04-21T20:07:24.122Z,100650.41
2023-04-21T20:09:54.037Z,100654.81
2023-04-21T20:12:23.949Z,100665.47
2023-04-21T20:14:54.749Z,100696.53
2023-04-21T20:17:27.874Z,100716.94
2023-04-21T20:19:59.082Z,100717.63
2023-04-21T20:22:29.083Z,100685.34
2023-04-21T20:24:59.314Z,100685.78
2023-04-21T20:27:30.189Z,100658.91
2023-04-21T20:30:00.020Z,100654.81
2023-04-21T20:32:33.034Z,100667.88
2023-04-21T20:35:03.018Z,100660.38
2023-04-21T20:37:33.659Z,100655.59
2023-04-21T20:40:08.510Z,100656.50
2023-04-21T20:42:38.635Z,100649.63
2023-04-21T20:45:11.275Z,100632.41
2023-04-21T20:47:43.817Z,100623.19
2023-04-21T20:50:14.032Z,100596.28
2023-04-21T20:52:43.965Z,100582.94
2023-04-21T20:55:14.877Z,100578.97
2023-04-21T20:57:45.117Z,100585.59
2023-04-21T21:00:15.951Z,100566.09
2023-04-21T21:02:48.730Z,100555.16
2023-04-21T21:05:18.962Z,100550.13
2023-04-21T21:07:48.927Z,100544.34
2023-04-21T21:10:24.456Z,100547.53
2023-04-21T21:12:54.382Z,100547.06
2023-04-21T21:15:24.613Z,100554.00
2023-04-21T21:17:57.412Z,100560.09
2023-04-21T21:20:27.433Z,100577.22
2023-04-21T21:22:57.625Z,100580.19
2023-04-21T21:25:27.519Z,100593.25
2023-04-21T21:28:01.242Z,100597.38
2023-04-21T21:30:31.277Z,100596.47
2023-04-21T21:33:06.408Z,100583.03
2023-04-21T21:35:36.437Z,100595.47
2023-04-21T21:38:07.023Z,100599.25
2023-04-21T21:40:36.934Z,100589.72
2023-04-21T21:43:06.785Z,100607.50
2023-04-21T21:45:36.670Z,100595.91
2023-04-21T21:48:09.461Z,100590.69
2023-04-21T21:50:39.494Z,100600.50
2023-04-21T21:53:09.416Z,100617.59
2023-04-21T21:55:39.465Z,100620.13
2023-04-21T21:58:09.799Z,100624.22
2023-04-21T22:00:40.285Z,100617.84
2023-04-21T22:03:12.884Z,100608.41
2023-04-21T22:05:43.011Z,100601.25
2023-04-21T22:08:13.346Z,100604.63
2023-04-21T22:10:43.275Z,100601.78
2023-04-21T22:13:13.689Z,100600.91
2023-04-21T22:15:43.740Z,100615.56
2023-04-21T22:18:18.850Z,100606.47
2023-04-21T22:20:48.731Z,100603.97
2023-04-21T22:23:20.631Z,100605.09
2023-04-21T22:25:50.479Z,100611.25
2023-04-21T22:28:20.873Z,100612.81
2023-04-21T22:30:50.850Z,100606.91
2023-04-21T22:33:24.357Z,100601.50
2023-04-21T22:35:54.383Z,100605.25
2023-04-21T22:38:24.336Z,100616.16
2023-04-21T22:40:54.279Z,100612.31
2023-04-21T22:43:24.177Z,100617.75
2023-04-21T22:45:54.185Z,100610.69
2023-04-21T22:48:27.168Z,100614.09
2023-04-21T22:50:57.679Z,100615.09
2023-04-21T22:53:27.880Z,100620.56
2023-04-21T22:55:57.808Z,100616.59
2023-04-21T22:58:28.190Z,100613.41
2023-04-21T23:00:58.149Z,100617.91
2023-04-21T23:03:31.473Z,100618.59
2023-04-21T23:06:02.107Z,100618.81
2023-04-21T23:08:32.014Z,100612.09
2023-04-21T23:11:02.260Z,100604.94
2023-04-21T23:13:33.002Z,100600.16
2023-04-21T23:16:03.042Z,100608.16
2023-04-21T23:18:36.138Z,100605.31
2023-04-21T23:21:06.081Z,100602.00
2023-04-21T23:23:35.961Z,100599.13
2023-04-21T23:26:05.858Z,100590.06
2023-04-21T23:28:35.983Z,100596.28
2023-04-21T23:31:06.152Z,100588.13
2023-04-21T23:33:38.880Z,100584.59
2023-04-21T23:36:09.311Z,100579.16
2023-04-21T23:38:39.173Z,100578.38
2023-04-21T23:41:09.361Z,100583.00
2023-04-21T23:43:39.319Z,100570.84
2023-04-21T23:46:09.407Z,100568.47
2023-04-21T23:48:42.073Z,100579.69
2023-04-21T23:51:12.085Z,100580.34
2023-04-21T23:53:42.250Z,100579.09
2023-04-21T23:56:12.413Z,100584.53
2023-04-21T23:58:43.861Z,100587.94
